Terminal Aerodrome Forecast
Issued by NWS Binghamton, NY

Home | Current Version | Previous Version | Text Only | Print | Product List | Glossary On
Versions: 1 2 3 4 5 6 7 8 9 10 11 12 13 14 15 16 17 18 19 20 21 22 23 24 25
000
FTUS41 KBGM 132332
TAFSYR
TAF
KSYR 132332Z 1400/1424 26016KT P6SM -SHSN OVC045
     FM140200 26009KT P6SM -SHSN OVC035
     FM140400 25006KT 3SM -SN OVC020
     FM141200 30008KT 4SM -SHSN BKN035
     FM141500 30009KT P6SM -SHSN BKN040=

USA.gov is the U.S. government's official web portal to all federal, state and local government web resources and services.